sensor_id;sensor_type;location;lat;lon;timestamp;temperature;humidity
32839;DHT22;19182;41.820;12.808;2023-02-28T00:00:16;7.30;99.90
32839;DHT22;19182;41.820;12.808;2023-02-28T00:02:45;7.40;99.90
32839;DHT22;19182;41.820;12.808;2023-02-28T00:05:13;7.30;99.90
32839;DHT22;19182;41.820;12.808;2023-02-28T00:07:39;7.30;99.90
32839;DHT22;19182;41.820;12.808;2023-02-28T00:10:06;7.30;99.90
32839;DHT22;19182;41.820;12.808;2023-02-28T00:12:33;7.40;99.90
32839;DHT22;19182;41.820;12.808;2023-02-28T00:14:59;7.30;99.90
32839;DHT22;19182;41.820;12.808;2023-02-28T00:17:25;7.30;99.90
32839;DHT22;19182;41.820;12.808;2023-02-28T00:19:51;7.20;99.90
32839;DHT22;19182;41.820;12.808;2023-02-28T00:22:20;7.10;99.90
32839;DHT22;19182;41.820;12.808;2023-02-28T00:24:46;7.00;99.90
32839;DHT22;19182;41.820;12.808;2023-02-28T00:27:13;7.00;99.90
32839;DHT22;19182;41.820;12.808;2023-02-28T00:29:39;7.20;99.90
32839;DHT22;19182;41.820;12.808;2023-02-28T00:32:06;7.20;99.90
32839;DHT22;19182;41.820;12.808;2023-02-28T00:34:32;7.20;99.90
32839;DHT22;19182;41.820;12.808;2023-02-28T00:37:04;7.20;99.90
32839;DHT22;19182;41.820;12.808;2023-02-28T00:39:31;7.10;99.90
32839;DHT22;19182;41.820;12.808;2023-02-28T00:41:56;7.10;99.90
32839;DHT22;19182;41.820;12.808;2023-02-28T00:44:25;7.00;99.90
32839;DHT22;19182;41.820;12.808;2023-02-28T00:46:51;7.00;99.90
32839;DHT22;19182;41.820;12.808;2023-02-28T00:49:17;7.00;99.90
32839;DHT22;19182;41.820;12.808;2023-02-28T00:51:46;7.00;99.90
32839;DHT22;19182;41.820;12.808;2023-02-28T00:54:11;7.10;99.90
32839;DHT22;19182;41.820;12.808;2023-02-28T00:56:37;7.20;99.90
32839;DHT22;19182;41.820;12.808;2023-02-28T00:59:03;7.30;99.90
32839;DHT22;19182;41.820;12.808;2023-02-28T01:01:29;9.60;99.90
32839;DHT22;19182;41.820;12.808;2023-02-28T01:03:54;7.20;99.90
32839;DHT22;19182;41.820;12.808;2023-02-28T01:06:20;7.20;99.90
32839;DHT22;19182;41.820;12.808;2023-02-28T01:08:46;7.20;99.90
32839;DHT22;19182;41.820;12.808;2023-02-28T01:11:13;7.10;99.90
32839;DHT22;19182;41.820;12.808;2023-02-28T01:13:40;7.20;99.90
32839;DHT22;19182;41.820;12.808;2023-02-28T01:16:06;7.20;99.90
32839;DHT22;19182;41.820;12.808;2023-02-28T01:18:32;7.20;99.90
32839;DHT22;19182;41.820;12.808;2023-02-28T01:21:03;7.20;99.90
32839;DHT22;19182;41.820;12.808;2023-02-28T01:23:29;7.30;99.90
32839;DHT22;19182;41.820;12.808;2023-02-28T01:25:54;7.20;99.90
32839;DHT22;19182;41.820;12.808;2023-02-28T01:28:21;7.10;99.90
32839;DHT22;19182;41.820;12.808;2023-02-28T01:30:50;7.10;99.90
32839;DHT22;19182;41.820;12.808;2023-02-28T01:33:16;7.20;99.90
32839;DHT22;19182;41.820;12.808;2023-02-28T01:35:42;7.20;99.90
32839;DHT22;19182;41.820;12.808;2023-02-28T01:38:07;7.20;99.90
32839;DHT22;19182;41.820;12.808;2023-02-28T01:40:34;7.30;99.90
32839;DHT22;19182;41.820;12.808;2023-02-28T01:43:00;7.40;99.90
32839;DHT22;19182;41.820;12.808;2023-02-28T01:45:28;7.40;99.90
32839;DHT22;19182;41.820;12.808;2023-02-28T01:48:02;7.30;99.90
32839;DHT22;19182;41.820;12.808;2023-02-28T01:50:31;7.30;99.90
32839;DHT22;19182;41.820;12.808;2023-02-28T01:53:02;7.20;99.90
32839;DHT22;19182;41.820;12.808;2023-02-28T01:55:29;7.20;99.90
32839;DHT22;19182;41.820;12.808;2023-02-28T01:57:58;7.20;99.90
32839;DHT22;19182;41.820;12.808;2023-02-28T02:00:28;7.40;99.90
32839;DHT22;19182;41.820;12.808;2023-02-28T02:03:07;7.30;99.90
32839;DHT22;19182;41.820;12.808;2023-02-28T02:05:37;7.40;99.90
32839;DHT22;19182;41.820;12.808;2023-02-28T02:08:15;7.40;99.90
32839;DHT22;19182;41.820;12.808;2023-02-28T02:10:52;7.50;99.90
32839;DHT22;19182;41.820;12.808;2023-02-28T02:25:41;7.40;99.90
32839;DHT22;19182;41.820;12.808;2023-02-28T02:34:25;7.40;99.90
32839;DHT22;19182;41.820;12.808;2023-02-28T02:43:00;7.30;99.90
32839;DHT22;19182;41.820;12.808;2023-02-28T02:45:43;7.30;99.90
32839;DHT22;19182;41.820;12.808;2023-02-28T02:48:16;7.20;99.90
32839;DHT22;19182;41.820;12.808;2023-02-28T02:51:03;7.30;99.90
32839;DHT22;19182;41.820;12.808;2023-02-28T02:53:36;7.10;99.90
32839;DHT22;19182;41.820;12.808;2023-02-28T02:56:07;7.10;99.90
32839;DHT22;19182;41.820;12.808;2023-02-28T02:58:37;7.10;99.90
32839;DHT22;19182;41.820;12.808;2023-02-28T03:01:08;7.10;99.90
32839;DHT22;19182;41.820;12.808;2023-02-28T03:03:36;7.10;99.90
32839;DHT22;19182;41.820;12.808;2023-02-28T03:06:05;7.10;99.90
32839;DHT22;19182;41.820;12.808;2023-02-28T03:08:36;7.00;99.90
32839;DHT22;19182;41.820;12.808;2023-02-28T03:11:04;7.10;99.90
32839;DHT22;19182;41.820;12.808;2023-02-28T03:16:49;6.90;99.90
32839;DHT22;19182;41.820;12.808;2023-02-28T03:33:34;6.90;99.90
32839;DHT22;19182;41.820;12.808;2023-02-28T03:36:09;8.80;99.90
32839;DHT22;19182;41.820;12.808;2023-02-28T03:38:47;6.80;99.90
32839;DHT22;19182;41.820;12.808;2023-02-28T03:41:18;6.70;99.90
32839;DHT22;19182;41.820;12.808;2023-02-28T03:44:01;6.60;99.90
32839;DHT22;19182;41.820;12.808;2023-02-28T03:46:33;6.60;99.90
32839;DHT22;19182;41.820;12.808;2023-02-28T03:49:20;6.60;99.90
32839;DHT22;19182;41.820;12.808;2023-02-28T03:51:48;6.70;99.90
32839;DHT22;19182;41.820;12.808;2023-02-28T03:54:21;6.60;99.90
32839;DHT22;19182;41.820;12.808;2023-02-28T03:57:09;6.50;99.90
32839;DHT22;19182;41.820;12.808;2023-02-28T04:00:06;6.40;99.90
32839;DHT22;19182;41.820;12.808;2023-02-28T04:02:33;6.40;99.90
32839;DHT22;19182;41.820;12.808;2023-02-28T04:05:00;6.40;99.90
32839;DHT22;19182;41.820;12.808;2023-02-28T04:07:35;6.40;99.90
32839;DHT22;19182;41.820;12.808;2023-02-28T04:10:02;6.30;99.90
32839;DHT22;19182;41.820;12.808;2023-02-28T04:12:28;6.20;99.90
32839;DHT22;19182;41.820;12.808;2023-02-28T04:14:53;6.30;99.90
32839;DHT22;19182;41.820;12.808;2023-02-28T04:17:19;6.30;99.90
32839;DHT22;19182;41.820;12.808;2023-02-28T04:19:45;6.40;99.90
32839;DHT22;19182;41.820;12.808;2023-02-28T04:22:11;6.50;99.90
32839;DHT22;19182;41.820;12.808;2023-02-28T04:24:37;6.60;99.90
32839;DHT22;19182;41.820;12.808;2023-02-28T04:27:06;6.20;99.90
32839;DHT22;19182;41.820;12.808;2023-02-28T04:29:33;6.80;99.90
32839;DHT22;19182;41.820;12.808;2023-02-28T04:32:00;6.90;99.90
32839;DHT22;19182;41.820;12.808;2023-02-28T04:34:28;7.00;99.90
32839;DHT22;19182;41.820;12.808;2023-02-28T04:36:54;7.00;99.90
32839;DHT22;19182;41.820;12.808;2023-02-28T04:39:24;7.00;99.90
32839;DHT22;19182;41.820;12.808;2023-02-28T04:41:53;7.00;99.90
32839;DHT22;19182;41.820;12.808;2023-02-28T04:44:19;7.00;99.90
32839;DHT22;19182;41.820;12.808;2023-02-28T04:46:48;6.90;99.90
32839;DHT22;19182;41.820;12.808;2023-02-28T04:49:14;7.00;99.90
32839;DHT22;19182;41.820;12.808;2023-02-28T04:51:41;6.90;99.90
32839;DHT22;19182;41.820;12.808;2023-02-28T04:54:07;6.90;99.90
32839;DHT22;19182;41.820;12.808;2023-02-28T04:56:33;6.80;99.90
32839;DHT22;19182;41.820;12.808;2023-02-28T04:58:59;6.80;99.90
32839;DHT22;19182;41.820;12.808;2023-02-28T05:01:35;6.80;99.90
32839;DHT22;19182;41.820;12.808;2023-02-28T05:04:02;6.70;99.90
32839;DHT22;19182;41.820;12.808;2023-02-28T05:06:31;6.70;99.90
32839;DHT22;19182;41.820;12.808;2023-02-28T05:08:58;6.80;99.90
32839;DHT22;19182;41.820;12.808;2023-02-28T05:11:25;6.90;99.90
32839;DHT22;19182;41.820;12.808;2023-02-28T05:13:52;6.80;99.90
32839;DHT22;19182;41.820;12.808;2023-02-28T05:16:19;6.80;99.90
32839;DHT22;19182;41.820;12.808;2023-02-28T05:18:45;5.00;99.90
32839;DHT22;19182;41.820;12.808;2023-02-28T05:21:27;6.70;99.90
32839;DHT22;19182;41.820;12.808;2023-02-28T05:23:54;6.60;99.90
32839;DHT22;19182;41.820;12.808;2023-02-28T05:26:20;6.70;99.90
32839;DHT22;19182;41.820;12.808;2023-02-28T05:28:46;6.70;99.90
32839;DHT22;19182;41.820;12.808;2023-02-28T05:31:12;6.60;99.90
32839;DHT22;19182;41.820;12.808;2023-02-28T05:33:38;6.60;99.90
32839;DHT22;19182;41.820;12.808;2023-02-28T05:36:04;6.70;99.90
32839;DHT22;19182;41.820;12.808;2023-02-28T05:38:30;6.70;99.90
32839;DHT22;19182;41.820;12.808;2023-02-28T05:40:56;8.50;99.90
32839;DHT22;19182;41.820;12.808;2023-02-28T05:43:22;6.50;99.90
32839;DHT22;19182;41.820;12.808;2023-02-28T05:45:47;6.60;99.90
32839;DHT22;19182;41.820;12.808;2023-02-28T05:48:13;6.50;99.90
32839;DHT22;19182;41.820;12.808;2023-02-28T05:50:39;6.50;99.90
32839;DHT22;19182;41.820;12.808;2023-02-28T05:53:05;6.60;99.90
32839;DHT22;19182;41.820;12.808;2023-02-28T05:55:30;6.60;99.90
32839;DHT22;19182;41.820;12.808;2023-02-28T05:57:57;6.80;99.90
32839;DHT22;19182;41.820;12.808;2023-02-28T06:00:23;6.80;99.90
32839;DHT22;19182;41.820;12.808;2023-02-28T06:02:48;6.80;99.90
32839;DHT22;19182;41.820;12.808;2023-02-28T06:05:16;6.70;99.90
32839;DHT22;19182;41.820;12.808;2023-02-28T06:07:43;6.90;99.90
32839;DHT22;19182;41.820;12.808;2023-02-28T06:10:10;6.90;99.90
32839;DHT22;19182;41.820;12.808;2023-02-28T06:12:37;7.00;99.90
32839;DHT22;19182;41.820;12.808;2023-02-28T06:15:07;6.90;99.90
32839;DHT22;19182;41.820;12.808;2023-02-28T06:17:33;6.90;99.90
32839;DHT22;19182;41.820;12.808;2023-02-28T06:19:58;6.90;99.90
32839;DHT22;19182;41.820;12.808;2023-02-28T06:22:25;6.90;99.90
32839;DHT22;19182;41.820;12.808;2023-02-28T06:24:51;6.80;99.90
32839;DHT22;19182;41.820;12.808;2023-02-28T06:27:21;6.90;99.90
32839;DHT22;19182;41.820;12.808;2023-02-28T06:29:47;7.10;99.90
32839;DHT22;19182;41.820;12.808;2023-02-28T06:32:13;7.00;99.90
32839;DHT22;19182;41.820;12.808;2023-02-28T06:34:39;7.00;99.90
32839;DHT22;19182;41.820;12.808;2023-02-28T06:37:07;7.10;99.90
32839;DHT22;19182;41.820;12.808;2023-02-28T06:39:33;7.20;99.90
32839;DHT22;19182;41.820;12.808;2023-02-28T06:41:59;7.20;99.90
32839;DHT22;19182;41.820;12.808;2023-02-28T06:44:25;7.30;99.90
32839;DHT22;19182;41.820;12.808;2023-02-28T06:46:50;7.30;99.90
32839;DHT22;19182;41.820;12.808;2023-02-28T06:49:18;7.50;99.90
32839;DHT22;19182;41.820;12.808;2023-02-28T06:51:44;7.60;99.90
32839;DHT22;19182;41.820;12.808;2023-02-28T06:54:10;7.60;99.90
32839;DHT22;19182;41.820;12.808;2023-02-28T06:56:37;7.60;99.90
32839;DHT22;19182;41.820;12.808;2023-02-28T06:59:03;7.70;99.90
32839;DHT22;19182;41.820;12.808;2023-02-28T07:01:29;7.80;99.90
32839;DHT22;19182;41.820;12.808;2023-02-28T07:03:57;7.90;99.90
32839;DHT22;19182;41.820;12.808;2023-02-28T07:06:23;8.00;99.90
32839;DHT22;19182;41.820;12.808;2023-02-28T07:08:53;8.10;99.90
32839;DHT22;19182;41.820;12.808;2023-02-28T07:11:20;8.10;99.90
32839;DHT22;19182;41.820;12.808;2023-02-28T07:13:48;8.10;99.90
32839;DHT22;19182;41.820;12.808;2023-02-28T07:16:14;8.10;99.90
32839;DHT22;19182;41.820;12.808;2023-02-28T07:18:40;8.00;99.90
32839;DHT22;19182;41.820;12.808;2023-02-28T07:21:08;8.00;99.90
32839;DHT22;19182;41.820;12.808;2023-02-28T07:23:34;8.10;99.90
32839;DHT22;19182;41.820;12.808;2023-02-28T07:26:00;6.20;99.90
32839;DHT22;19182;41.820;12.808;2023-02-28T07:28:26;8.20;99.90
32839;DHT22;19182;41.820;12.808;2023-02-28T07:30:52;8.30;99.90
32839;DHT22;19182;41.820;12.808;2023-02-28T07:33:18;8.30;99.90
32839;DHT22;19182;41.820;12.808;2023-02-28T07:35:44;8.30;99.90
32839;DHT22;19182;41.820;12.808;2023-02-28T07:38:10;8.40;99.90
32839;DHT22;19182;41.820;12.808;2023-02-28T07:40:36;8.40;99.90
32839;DHT22;19182;41.820;12.808;2023-02-28T07:43:03;8.50;99.90
32839;DHT22;19182;41.820;12.808;2023-02-28T07:45:29;8.50;99.90
32839;DHT22;19182;41.820;12.808;2023-02-28T07:47:55;8.60;99.90
32839;DHT22;19182;41.820;12.808;2023-02-28T07:50:21;8.70;99.90
32839;DHT22;19182;41.820;12.808;2023-02-28T07:52:47;8.80;99.90
32839;DHT22;19182;41.820;12.808;2023-02-28T07:55:13;8.90;99.90
32839;DHT22;19182;41.820;12.808;2023-02-28T07:57:40;9.10;99.90
32839;DHT22;19182;41.820;12.808;2023-02-28T08:00:09;9.10;99.90
32839;DHT22;19182;41.820;12.808;2023-02-28T08:02:39;9.30;99.90
32839;DHT22;19182;41.820;12.808;2023-02-28T08:05:06;9.40;99.90
32839;DHT22;19182;41.820;12.808;2023-02-28T08:07:32;9.50;99.90
32839;DHT22;19182;41.820;12.808;2023-02-28T08:09:58;9.60;99.90
32839;DHT22;19182;41.820;12.808;2023-02-28T08:12:25;9.60;99.90
32839;DHT22;19182;41.820;12.808;2023-02-28T08:14:50;9.70;99.90
32839;DHT22;19182;41.820;12.808;2023-02-28T08:17:16;9.70;99.90
32839;DHT22;19182;41.820;12.808;2023-02-28T08:19:44;9.70;99.90
32839;DHT22;19182;41.820;12.808;2023-02-28T08:22:10;9.80;99.90
32839;DHT22;19182;41.820;12.808;2023-02-28T08:24:36;9.80;99.90
32839;DHT22;19182;41.820;12.808;2023-02-28T08:27:02;9.80;99.90
32839;DHT22;19182;41.820;12.808;2023-02-28T08:29:32;9.80;99.90
32839;DHT22;19182;41.820;12.808;2023-02-28T08:31:57;9.90;99.90
32839;DHT22;19182;41.820;12.808;2023-02-28T08:34:24;9.90;99.90
32839;DHT22;19182;41.820;12.808;2023-02-28T08:36:49;10.00;99.90
32839;DHT22;19182;41.820;12.808;2023-02-28T08:39:15;10.40;99.90
32839;DHT22;19182;41.820;12.808;2023-02-28T08:41:42;10.50;99.90
32839;DHT22;19182;41.820;12.808;2023-02-28T08:44:09;10.30;99.90
32839;DHT22;19182;41.820;12.808;2023-02-28T08:46:35;10.50;99.90
32839;DHT22;19182;41.820;12.808;2023-02-28T08:49:02;10.80;99.90
32839;DHT22;19182;41.820;12.808;2023-02-28T08:51:28;11.20;99.90
32839;DHT22;19182;41.820;12.808;2023-02-28T08:53:57;11.60;99.90
32839;DHT22;19182;41.820;12.808;2023-02-28T08:56:23;12.30;99.90
32839;DHT22;19182;41.820;12.808;2023-02-28T08:58:49;12.60;99.90
32839;DHT22;19182;41.820;12.808;2023-02-28T09:01:19;12.90;99.90
32839;DHT22;19182;41.820;12.808;2023-02-28T09:03:46;13.40;99.90
32839;DHT22;19182;41.820;12.808;2023-02-28T09:06:14;14.10;99.90
32839;DHT22;19182;41.820;12.808;2023-02-28T09:08:40;14.70;99.90
32839;DHT22;19182;41.820;12.808;2023-02-28T09:11:06;15.80;99.90
32839;DHT22;19182;41.820;12.808;2023-02-28T09:13:36;17.20;99.90
32839;DHT22;19182;41.820;12.808;2023-02-28T09:16:03;18.10;99.90
32839;DHT22;19182;41.820;12.808;2023-02-28T09:18:30;18.10;99.90
32839;DHT22;19182;41.820;12.808;2023-02-28T09:20:57;17.90;99.90
32839;DHT22;19182;41.820;12.808;2023-02-28T09:23:24;16.70;99.90
32839;DHT22;19182;41.820;12.808;2023-02-28T09:25:53;16.90;99.90
32839;DHT22;19182;41.820;12.808;2023-02-28T09:28:21;17.80;99.90
32839;DHT22;19182;41.820;12.808;2023-02-28T09:30:52;16.70;99.90
32839;DHT22;19182;41.820;12.808;2023-02-28T09:33:19;15.00;99.90
32839;DHT22;19182;41.820;12.808;2023-02-28T09:35:49;14.50;99.90
32839;DHT22;19182;41.820;12.808;2023-02-28T09:38:15;14.60;99.90
32839;DHT22;19182;41.820;12.808;2023-02-28T09:40:51;14.60;99.90
32839;DHT22;19182;41.820;12.808;2023-02-28T09:43:20;15.00;99.90
32839;DHT22;19182;41.820;12.808;2023-02-28T09:46:01;15.60;99.90
32839;DHT22;19182;41.820;12.808;2023-02-28T09:48:36;16.30;99.90
32839;DHT22;19182;41.820;12.808;2023-02-28T09:53:49;15.40;99.90
32839;DHT22;19182;41.820;12.808;2023-02-28T09:56:25;14.40;99.90
32839;DHT22;19182;41.820;12.808;2023-02-28T09:59:09;13.80;99.90
32839;DHT22;19182;41.820;12.808;2023-02-28T10:02:01;14.00;99.90
32839;DHT22;19182;41.820;12.808;2023-02-28T10:07:17;15.30;99.90
32839;DHT22;19182;41.820;12.808;2023-02-28T10:09:47;15.30;99.90
32839;DHT22;19182;41.820;12.808;2023-02-28T10:12:14;15.10;99.90
32839;DHT22;19182;41.820;12.808;2023-02-28T10:14:46;14.60;99.90
32839;DHT22;19182;41.820;12.808;2023-02-28T10:17:23;13.70;99.90
32839;DHT22;19182;41.820;12.808;2023-02-28T10:25:24;12.50;99.90
32839;DHT22;19182;41.820;12.808;2023-02-28T10:27:54;12.40;99.90
32839;DHT22;19182;41.820;12.808;2023-02-28T10:30:21;12.20;99.90
32839;DHT22;19182;41.820;12.808;2023-02-28T10:32:52;12.30;99.90
32839;DHT22;19182;41.820;12.808;2023-02-28T10:35:20;12.40;99.90
32839;DHT22;19182;41.820;12.808;2023-02-28T10:37:56;12.50;99.90
32839;DHT22;19182;41.820;12.808;2023-02-28T10:42:57;12.60;99.90
32839;DHT22;19182;41.820;12.808;2023-02-28T10:45:24;12.90;99.90
32839;DHT22;19182;41.820;12.808;2023-02-28T10:48:02;13.40;99.90
32839;DHT22;19182;41.820;12.808;2023-02-28T11:04:44;17.90;99.90
32839;DHT22;19182;41.820;12.808;2023-02-28T11:07:20;17.90;99.90
32839;DHT22;19182;41.820;12.808;2023-02-28T11:09:57;18.00;99.90
32839;DHT22;19182;41.820;12.808;2023-02-28T11:12:38;17.50;99.90
32839;DHT22;19182;41.820;12.808;2023-02-28T11:15:07;16.60;99.90
32839;DHT22;19182;41.820;12.808;2023-02-28T11:17:44;16.30;99.90
32839;DHT22;19182;41.820;12.808;2023-02-28T11:20:23;16.30;99.90
32839;DHT22;19182;41.820;12.808;2023-02-28T11:22:51;16.20;99.90
32839;DHT22;19182;41.820;12.808;2023-02-28T11:25:27;15.30;99.90
32839;DHT22;19182;41.820;12.808;2023-02-28T11:27:59;14.60;99.90
32839;DHT22;19182;41.820;12.808;2023-02-28T11:30:38;14.40;99.90
32839;DHT22;19182;41.820;12.808;2023-02-28T11:34:10;14.50;99.90
32839;DHT22;19182;41.820;12.808;2023-02-28T11:36:25;14.20;99.90
32839;DHT22;19182;41.820;12.808;2023-02-28T11:38:56;14.20;99.90
32839;DHT22;19182;41.820;12.808;2023-02-28T11:46:58;13.80;99.90
32839;DHT22;19182;41.820;12.808;2023-02-28T11:55:32;14.10;99.90
32839;DHT22;19182;41.820;12.808;2023-02-28T12:06:44;14.90;99.90
32839;DHT22;19182;41.820;12.808;2023-02-28T12:09:33;15.10;99.90
32839;DHT22;19182;41.820;12.808;2023-02-28T12:26:19;15.10;99.90
32839;DHT22;19182;41.820;12.808;2023-02-28T12:29:04;14.90;99.90
32839;DHT22;19182;41.820;12.808;2023-02-28T12:31:36;14.60;99.90
32839;DHT22;19182;41.820;12.808;2023-02-28T12:34:09;14.30;99.90
32839;DHT22;19182;41.820;12.808;2023-02-28T12:36:58;14.10;99.90
32839;DHT22;19182;41.820;12.808;2023-02-28T12:39:34;14.00;99.90
32839;DHT22;19182;41.820;12.808;2023-02-28T12:42:05;13.90;99.90
32839;DHT22;19182;41.820;12.808;2023-02-28T12:44:44;13.80;99.90
32839;DHT22;19182;41.820;12.808;2023-02-28T12:47:15;13.40;99.90
32839;DHT22;19182;41.820;12.808;2023-02-28T12:52:25;12.70;99.90
32839;DHT22;19182;41.820;12.808;2023-02-28T12:55:06;12.60;99.90
32839;DHT22;19182;41.820;12.808;2023-02-28T12:57:47;12.50;99.90
32839;DHT22;19182;41.820;12.808;2023-02-28T13:00:22;12.60;99.90
32839;DHT22;19182;41.820;12.808;2023-02-28T13:05:50;12.50;99.90
32839;DHT22;19182;41.820;12.808;2023-02-28T13:10:50;12.40;99.90
32839;DHT22;19182;41.820;12.808;2023-02-28T13:13:42;12.40;99.90
32839;DHT22;19182;41.820;12.808;2023-02-28T13:16:10;12.30;99.90
32839;DHT22;19182;41.820;12.808;2023-02-28T13:18:46;12.30;99.90
32839;DHT22;19182;41.820;12.808;2023-02-28T13:21:24;12.40;99.90
32839;DHT22;19182;41.820;12.808;2023-02-28T13:28:58;12.50;99.90
32839;DHT22;19182;41.820;12.808;2023-02-28T13:31:25;12.80;99.90
32839;DHT22;19182;41.820;12.808;2023-02-28T13:36:31;12.80;99.90
32839;DHT22;19182;41.820;12.808;2023-02-28T13:39:02;12.90;99.90
32839;DHT22;19182;41.820;12.808;2023-02-28T13:44:02;14.30;99.90
32839;DHT22;19182;41.820;12.808;2023-02-28T13:46:28;13.00;99.90
32839;DHT22;19182;41.820;12.808;2023-02-28T13:48:55;12.80;99.90
32839;DHT22;19182;41.820;12.808;2023-02-28T13:51:43;12.80;99.90
32839;DHT22;19182;41.820;12.808;2023-02-28T14:06:30;13.20;99.90
32839;DHT22;19182;41.820;12.808;2023-02-28T14:11:30;12.90;99.90
32839;DHT22;19182;41.820;12.808;2023-02-28T14:13:58;12.70;99.90
32839;DHT22;19182;41.820;12.808;2023-02-28T14:16:26;12.60;99.90
32839;DHT22;19182;41.820;12.808;2023-02-28T14:19:46;12.60;99.90
32839;DHT22;19182;41.820;12.808;2023-02-28T14:25:10;12.40;99.90
32839;DHT22;19182;41.820;12.808;2023-02-28T14:27:53;12.50;99.90
32839;DHT22;19182;41.820;12.808;2023-02-28T14:31:00;12.60;99.90
32839;DHT22;19182;41.820;12.808;2023-02-28T14:36:23;12.50;99.90
32839;DHT22;19182;41.820;12.808;2023-02-28T14:38:56;12.50;99.90
32839;DHT22;19182;41.820;12.808;2023-02-28T14:41:32;12.60;99.90
32839;DHT22;19182;41.820;12.808;2023-02-28T14:44:17;12.60;99.90
32839;DHT22;19182;41.820;12.808;2023-02-28T14:46:45;12.50;99.90
32839;DHT22;19182;41.820;12.808;2023-02-28T14:49:36;12.40;99.90
32839;DHT22;19182;41.820;12.808;2023-02-28T14:52:24;12.30;99.90
32839;DHT22;19182;41.820;12.808;2023-02-28T14:55:12;12.30;99.90
32839;DHT22;19182;41.820;12.808;2023-02-28T14:58:04;12.10;99.90
32839;DHT22;19182;41.820;12.808;2023-02-28T15:00:33;12.00;99.90
32839;DHT22;19182;41.820;12.808;2023-02-28T15:03:30;11.90;99.90
32839;DHT22;19182;41.820;12.808;2023-02-28T15:05:59;11.80;99.90
32839;DHT22;19182;41.820;12.808;2023-02-28T15:08:28;11.80;99.90
32839;DHT22;19182;41.820;12.808;2023-02-28T15:11:23;11.70;99.90
32839;DHT22;19182;41.820;12.808;2023-02-28T15:13:52;11.70;99.90
32839;DHT22;19182;41.820;12.808;2023-02-28T15:16:23;11.60;99.90
32839;DHT22;19182;41.820;12.808;2023-02-28T15:19:04;11.20;99.90
32839;DHT22;19182;41.820;12.808;2023-02-28T15:21:34;11.20;99.90
32839;DHT22;19182;41.820;12.808;2023-02-28T15:24:03;11.10;99.90
32839;DHT22;19182;41.820;12.808;2023-02-28T15:26:42;11.00;99.90
32839;DHT22;19182;41.820;12.808;2023-02-28T15:29:15;10.70;99.90
32839;DHT22;19182;41.820;12.808;2023-02-28T15:31:48;10.60;99.90
32839;DHT22;19182;41.820;12.808;2023-02-28T15:34:38;10.60;99.90
32839;DHT22;19182;41.820;12.808;2023-02-28T15:45:36;10.00;99.90
32839;DHT22;19182;41.820;12.808;2023-02-28T15:48:15;9.80;99.90
32839;DHT22;19182;41.820;12.808;2023-02-28T15:50:42;9.80;99.90
32839;DHT22;19182;41.820;12.808;2023-02-28T15:53:21;9.50;99.90
32839;DHT22;19182;41.820;12.808;2023-02-28T15:56:01;9.40;99.90
32839;DHT22;19182;41.820;12.808;2023-02-28T15:58:27;9.30;99.90
32839;DHT22;19182;41.820;12.808;2023-02-28T16:01:03;9.10;99.90
32839;DHT22;19182;41.820;12.808;2023-02-28T16:03:43;9.10;99.90
32839;DHT22;19182;41.820;12.808;2023-02-28T16:06:23;9.00;99.90
32839;DHT22;19182;41.820;12.808;2023-02-28T16:08:50;11.10;99.90
32839;DHT22;19182;41.820;12.808;2023-02-28T16:11:20;9.00;99.90
32839;DHT22;19182;41.820;12.808;2023-02-28T16:13:47;8.90;99.90
32839;DHT22;19182;41.820;12.808;2023-02-28T16:16:21;8.80;99.90
32839;DHT22;19182;41.820;12.808;2023-02-28T16:18:47;8.70;99.90
32839;DHT22;19182;41.820;12.808;2023-02-28T16:21:15;8.70;99.90
32839;DHT22;19182;41.820;12.808;2023-02-28T16:23:40;8.70;99.90
32839;DHT22;19182;41.820;12.808;2023-02-28T16:26:08;8.70;99.90
32839;DHT22;19182;41.820;12.808;2023-02-28T16:28:37;8.80;99.90
32839;DHT22;19182;41.820;12.808;2023-02-28T16:31:05;8.70;99.90
32839;DHT22;19182;41.820;12.808;2023-02-28T16:33:32;8.60;99.90
32839;DHT22;19182;41.820;12.808;2023-02-28T16:35:59;8.60;99.90
32839;DHT22;19182;41.820;12.808;2023-02-28T16:38:25;8.60;99.90
32839;DHT22;19182;41.820;12.808;2023-02-28T16:40:55;8.60;99.90
32839;DHT22;19182;41.820;12.808;2023-02-28T16:43:24;8.60;99.90
32839;DHT22;19182;41.820;12.808;2023-02-28T16:45:57;8.50;99.90
32839;DHT22;19182;41.820;12.808;2023-02-28T16:48:25;8.50;99.90
32839;DHT22;19182;41.820;12.808;2023-02-28T16:50:51;8.50;99.90
32839;DHT22;19182;41.820;12.808;2023-02-28T16:53:18;8.50;99.90
32839;DHT22;19182;41.820;12.808;2023-02-28T16:55:43;8.50;99.90
32839;DHT22;19182;41.820;12.808;2023-02-28T16:58:15;8.50;99.90
32839;DHT22;19182;41.820;12.808;2023-02-28T17:00:41;8.50;99.90
32839;DHT22;19182;41.820;12.808;2023-02-28T17:03:23;8.50;99.90
32839;DHT22;19182;41.820;12.808;2023-02-28T17:05:49;8.40;99.90
32839;DHT22;19182;41.820;12.808;2023-02-28T17:08:14;8.50;99.90
32839;DHT22;19182;41.820;12.808;2023-02-28T17:10:41;8.40;99.90
32839;DHT22;19182;41.820;12.808;2023-02-28T17:13:07;8.40;99.90
32839;DHT22;19182;41.820;12.808;2023-02-28T17:15:34;6.60;99.90
32839;DHT22;19182;41.820;12.808;2023-02-28T17:18:02;8.30;99.90
32839;DHT22;19182;41.820;12.808;2023-02-28T17:20:28;8.20;99.90
32839;DHT22;19182;41.820;12.808;2023-02-28T17:22:54;8.30;99.90
32839;DHT22;19182;41.820;12.808;2023-02-28T17:25:20;8.30;99.90
32839;DHT22;19182;41.820;12.808;2023-02-28T17:27:47;8.30;99.90
32839;DHT22;19182;41.820;12.808;2023-02-28T17:30:21;8.30;99.90
32839;DHT22;19182;41.820;12.808;2023-02-28T17:32:47;8.30;99.90
32839;DHT22;19182;41.820;12.808;2023-02-28T17:35:13;8.20;99.90
32839;DHT22;19182;41.820;12.808;2023-02-28T17:37:40;8.20;99.90
32839;DHT22;19182;41.820;12.808;2023-02-28T17:40:17;8.10;99.90
32839;DHT22;19182;41.820;12.808;2023-02-28T17:42:43;8.20;99.90
32839;DHT22;19182;41.820;12.808;2023-02-28T17:45:10;9.20;99.90
32839;DHT22;19182;41.820;12.808;2023-02-28T17:47:37;8.20;99.90
32839;DHT22;19182;41.820;12.808;2023-02-28T17:50:04;8.20;99.90
32839;DHT22;19182;41.820;12.808;2023-02-28T17:52:31;8.10;99.90
32839;DHT22;19182;41.820;12.808;2023-02-28T17:55:03;8.10;99.90
32839;DHT22;19182;41.820;12.808;2023-02-28T17:57:29;8.10;99.90
32839;DHT22;19182;41.820;12.808;2023-02-28T17:59:58;8.10;99.90
32839;DHT22;19182;41.820;12.808;2023-02-28T18:02:24;8.10;99.90
32839;DHT22;19182;41.820;12.808;2023-02-28T18:04:50;8.00;99.90
32839;DHT22;19182;41.820;12.808;2023-02-28T18:07:16;8.00;99.90
32839;DHT22;19182;41.820;12.808;2023-02-28T18:09:42;8.00;99.90
32839;DHT22;19182;41.820;12.808;2023-02-28T18:12:08;8.00;99.90
32839;DHT22;19182;41.820;12.808;2023-02-28T18:14:34;7.90;99.90